Time;durP1;ratioP1;P1;durP2;ratioP2;P2;SDS_P1;SDS_P2;PMS_P1;PMS_P2;Temp;Humidity;BMP_temperature;BMP_pressure;BME280_temperature;BME280_humidity;BME280_pressure;Samples;Min_cycle;Max_cycle;Signal;HPM_P1;HPM_P2
2023/03/19 00:00:29;;;;;;;8.18;4.97;;;;;;;23.10;31.91;100031.91;4348313;32;33801;-62
2023/03/19 00:02:56;;;;;;;9.23;4.15;;;;;;;23.11;31.93;100033.56;4360611;32;33079;-63
2023/03/19 00:05:24;;;;;;;7.50;4.15;;;;;;;23.09;31.97;100032.94;4361416;32;34699;-63
2023/03/19 00:07:52;;;;;;;9.88;4.10;;;;;;;23.08;32.01;100020.37;4360442;32;33265;-63
2023/03/19 00:10:20;;;;;;;6.90;4.37;;;;;;;23.08;32.01;100020.37;4347024;32;33753;-67
2023/03/19 00:12:47;;;;;;;8.68;4.37;;;;;;;23.07;32.05;100014.09;4347285;32;32960;-64
2023/03/19 00:15:15;;;;;;;10.63;4.55;;;;;;;23.07;32.08;100013.28;4360699;32;32758;-65
2023/03/19 00:17:43;;;;;;;6.95;4.22;;;;;;;23.05;32.13;100013.50;4361466;32;34204;-63
2023/03/19 00:20:10;;;;;;;7.47;4.43;;;;;;;23.04;32.16;100011.84;4348234;32;33834;-63
2023/03/19 00:22:38;;;;;;;8.27;4.40;;;;;;;23.02;32.19;100013.94;4348257;32;33784;-63
2023/03/19 00:25:07;;;;;;;8.23;3.97;;;;;;;23.03;32.20;100006.59;4360177;32;33691;-66
2023/03/19 00:27:36;;;;;;;9.05;4.43;;;;;;;23.03;32.22;100012.03;4359690;32;34203;-63
2023/03/19 00:30:05;;;;;;;7.55;4.28;;;;;;;23.02;32.23;100011.19;4362334;32;34023;-62
2023/03/19 00:32:34;;;;;;;6.22;3.97;;;;;;;23.01;32.23;100009.53;4381322;32;33443;-67
2023/03/19 00:35:05;;;;;;;7.00;4.47;;;;;;;23.02;32.28;100010.37;4363911;32;34544;-63
2023/03/19 00:37:33;;;;;;;7.43;3.70;;;;;;;23.00;32.32;100007.06;4387165;32;33160;-62
2023/03/19 00:40:01;;;;;;;6.82;4.32;;;;;;;22.99;32.34;100003.50;4387684;32;34413;-65
2023/03/19 00:42:30;;;;;;;9.60;4.45;;;;;;;22.99;32.39;99999.91;4363182;32;34763;-64
2023/03/19 00:44:58;;;;;;;7.45;4.22;;;;;;;22.98;32.41;99995.53;4359518;32;33804;-63
2023/03/19 00:47:26;;;;;;;7.72;4.43;;;;;;;22.98;32.42;100001.81;4361381;32;33426;-66
2023/03/19 00:49:54;;;;;;;6.80;4.22;;;;;;;22.97;32.44;99994.69;4361296;32;33738;-62
2023/03/19 00:52:22;;;;;;;7.75;3.78;;;;;;;22.97;32.45;99983.81;4360003;32;34762;-65
2023/03/19 00:54:49;;;;;;;8.65;4.32;;;;;;;22.97;32.47;99991.97;4361307;32;34322;-63
2023/03/19 00:57:18;;;;;;;6.53;3.90;;;;;;;22.96;32.48;99993.03;4361422;32;33482;-67
2023/03/19 00:59:46;;;;;;;6.10;3.85;;;;;;;22.97;32.50;99994.69;4359577;32;34541;-62
2023/03/19 01:02:13;;;;;;;6.80;4.25;;;;;;;22.96;32.52;99998.47;4360054;32;33138;-63
2023/03/19 01:04:41;;;;;;;6.47;3.60;;;;;;;22.96;32.56;99993.03;4360069;32;32854;-63
2023/03/19 01:07:10;;;;;;;8.02;3.72;;;;;;;22.97;32.57;99991.16;4372080;32;32949;-64
2023/03/19 01:09:38;;;;;;;6.82;4.03;;;;;;;22.95;32.58;99993.25;4360092;32;33939;-62
2023/03/19 01:12:06;;;;;;;8.93;4.78;;;;;;;22.95;32.60;99996.81;4359899;32;32707;-62
2023/03/19 01:14:34;;;;;;;6.78;3.83;;;;;;;22.96;32.64;100000.37;4361292;32;33952;-63
2023/03/19 01:17:02;;;;;;;9.20;4.03;;;;;;;22.95;32.64;100002.25;4359864;32;32315;-64
2023/03/19 01:19:29;;;;;;;9.48;4.10;;;;;;;22.95;32.67;99996.00;4361204;32;34466;-63
2023/03/19 01:21:57;;;;;;;6.57;3.92;;;;;;;22.96;32.69;100005.81;4359594;32;33821;-63
2023/03/19 01:24:29;;;;;;;6.43;4.07;;;;;;;22.94;32.70;100006.00;4360080;32;33681;-66
2023/03/19 01:26:56;;;;;;;6.95;4.43;;;;;;;22.94;32.72;99989.69;4361020;32;33476;-63
2023/03/19 01:29:24;;;;;;;9.98;4.62;;;;;;;22.95;32.72;100002.25;4359826;32;33878;-62
2023/03/19 01:31:54;;;;;;;7.87;4.17;;;;;;;22.95;32.74;99996.00;4361156;32;33692;-62
2023/03/19 01:34:23;;;;;;;7.90;3.97;;;;;;;22.95;32.78;99991.38;4361122;32;34424;-66
2023/03/19 01:36:51;;;;;;;6.00;3.80;;;;;;;22.95;32.81;99994.09;4360836;32;33254;-62
2023/03/19 01:39:19;;;;;;;6.90;3.70;;;;;;;22.95;32.81;100004.16;4361134;32;34781;-63
2023/03/19 01:41:46;;;;;;;6.70;3.83;;;;;;;22.92;32.83;100003.53;4360619;32;34664;-63
2023/03/19 01:44:25;;;;;;;6.18;3.80;;;;;;;22.92;32.84;99989.91;4361166;32;33955;-65
2023/03/19 01:46:53;;;;;;;7.60;3.60;;;;;;;22.92;32.86;99992.63;4359378;32;33425;-66
2023/03/19 01:49:22;;;;;;;6.30;3.63;;;;;;;22.91;32.87;99992.87;4359662;32;34372;-62
2023/03/19 01:51:50;;;;;;;7.40;3.95;;;;;;;22.91;32.86;99992.87;4359566;32;33113;-62
2023/03/19 01:54:20;;;;;;;8.68;3.67;;;;;;;22.91;32.89;100006.47;4347492;32;33080;-62
2023/03/19 01:56:52;;;;;;;5.85;3.50;;;;;;;22.90;32.92;100008.34;4349400;32;33474;-62
2023/03/19 01:59:29;;;;;;;11.30;3.65;;;;;;;22.90;32.89;100002.91;4361283;32;33922;-62
2023/03/19 02:01:57;;;;;;;9.05;4.25;;;;;;;22.91;32.89;100003.75;4361220;32;34960;-63
2023/03/19 02:04:26;;;;;;;6.97;3.30;;;;;;;22.89;32.94;99998.50;4361518;32;34039;-63
2023/03/19 02:06:54;;;;;;;6.30;3.87;;;;;;;22.89;32.95;100003.13;4362609;32;33200;-62
2023/03/19 02:09:23;;;;;;;7.75;3.67;;;;;;;22.88;32.96;99993.25;4361208;32;34784;-62
2023/03/19 02:11:50;;;;;;;6.75;4.00;;;;;;;22.88;32.99;99983.19;4348927;32;34890;-63
2023/03/19 02:14:18;;;;;;;8.02;3.72;;;;;;;22.88;33.04;99985.09;4349079;32;32840;-62
2023/03/19 02:16:45;;;;;;;6.28;3.80;;;;;;;22.87;33.09;99986.97;4362384;32;33096;-62
2023/03/19 02:19:21;;;;;;;6.57;4.00;;;;;;;22.89;33.12;99981.34;4361510;32;34592;-62
2023/03/19 02:21:48;;;;;;;7.87;3.67;;;;;;;22.88;33.14;99987.81;4361096;32;35013;-63
2023/03/19 02:24:24;;;;;;;7.22;3.92;;;;;;;22.88;33.16;99993.25;4361511;32;34150;-64
2023/03/19 02:26:53;;;;;;;5.00;3.37;;;;;;;22.87;33.19;99983.44;4358149;32;33875;-62
2023/03/19 02:29:21;;;;;;;8.20;3.65;;;;;;;22.87;33.19;99978.81;4334332;33;33356;-65
2023/03/19 02:31:48;;;;;;;6.78;3.80;;;;;;;22.87;33.19;99975.28;4346456;33;33708;-63
2023/03/19 02:34:19;;;;;;;6.37;3.75;;;;;;;22.86;33.22;99977.16;4347087;33;34601;-63
2023/03/19 02:36:51;;;;;;;5.87;3.60;;;;;;;22.86;33.27;99971.72;4347593;33;33294;-63
2023/03/19 02:39:25;;;;;;;7.78;3.72;;;;;;;22.86;33.31;99968.16;4346554;32;33143;-63
2023/03/19 02:41:52;;;;;;;6.82;3.42;;;;;;;22.87;33.31;99969.84;4346153;33;34027;-66
2023/03/19 02:44:20;;;;;;;6.37;3.70;;;;;;;22.86;33.32;99969.00;4346570;33;34032;-64
2023/03/19 02:46:48;;;;;;;7.10;3.25;;;;;;;22.84;33.34;99968.38;4347609;33;33478;-63
2023/03/19 02:49:16;;;;;;;8.65;3.65;;;;;;;22.85;33.37;99964.63;4347283;33;33523;-62
2023/03/19 02:51:44;;;;;;;6.47;3.22;;;;;;;22.84;33.37;99965.66;4346373;33;34278;-63
2023/03/19 02:54:11;;;;;;;6.10;3.58;;;;;;;22.84;33.37;99965.66;4346267;33;33828;-63
2023/03/19 02:56:39;;;;;;;6.50;3.35;;;;;;;22.83;33.38;99974.88;4347255;33;33492;-63
2023/03/19 02:59:06;;;;;;;40.30;4.68;;;;;;;22.84;33.41;99970.25;4346973;33;34935;-67
2023/03/19 03:01:34;;;;;;;5.87;3.47;;;;;;;22.84;33.49;99970.25;4346079;33;33717;-62
2023/03/19 03:04:03;;;;;;;6.62;3.40;;;;;;;22.83;33.51;99966.69;4346116;33;33823;-68
2023/03/19 03:06:31;;;;;;;5.35;3.33;;;;;;;22.82;33.50;99969.66;4345541;33;33401;-63
2023/03/19 03:09:01;;;;;;;;;;;;;;;22.82;33.50;99970.47;4334641;33;32999;-64
2023/03/19 03:11:28;;;;;;;8.85;3.42;;;;;;;22.91;33.33;99971.94;4347481;33;34176;-64
2023/03/19 03:13:56;;;;;;;8.32;3.65;;;;;;;22.83;33.43;99972.16;4347284;33;34734;-63
2023/03/19 03:16:24;;;;;;;9.95;3.35;;;;;;;22.82;33.49;99975.09;4347259;33;33381;-63
2023/03/19 03:18:52;;;;;;;9.20;3.83;;;;;;;22.80;33.55;99969.03;4356370;32;33506;-63
2023/03/19 03:21:21;;;;;;;11.18;3.80;;;;;;;22.80;33.60;99974.47;4360836;32;34158;-64
2023/03/19 03:23:50;;;;;;;8.07;3.58;;;;;;;22.80;33.63;99975.31;4348629;32;33971;-67
2023/03/19 03:26:17;;;;;;;8.15;3.60;;;;;;;22.81;33.72;99974.25;4361894;32;33111;-63
2023/03/19 03:28:45;;;;;;;7.78;3.40;;;;;;;22.82;33.77;99964.22;4360872;32;33741;-64
2023/03/19 03:31:13;;;;;;;8.55;3.47;;;;;;;22.80;33.79;99971.75;4360755;32;33921;-64
2023/03/19 03:33:42;;;;;;;7.85;3.87;;;;;;;22.80;33.84;99982.62;4360679;32;34282;-63
2023/03/19 03:36:09;;;;;;;5.90;3.05;;;;;;;22.80;33.86;99985.34;4360839;32;33029;-63
2023/03/19 03:38:37;;;;;;;7.05;3.30;;;;;;;22.79;33.87;99980.97;4361921;32;33470;-67
2023/03/19 03:41:05;;;;;;;5.50;3.33;;;;;;;22.79;33.89;99979.06;4360673;32;33926;-63
2023/03/19 03:43:33;;;;;;;7.90;3.70;;;;;;;22.80;33.85;99971.75;4362166;32;34405;-63
2023/03/19 03:46:02;;;;;;;6.05;3.30;;;;;;;22.80;33.89;99969.03;4360682;32;34233;-63
2023/03/19 03:48:29;;;;;;;6.07;3.65;;;;;;;22.80;33.92;99969.87;4360720;32;32674;-64
2023/03/19 03:50:57;;;;;;;5.50;3.35;;;;;;;22.80;33.90;99972.59;4360811;32;33976;-64
2023/03/19 03:53:25;;;;;;;5.78;3.53;;;;;;;22.80;33.90;99969.03;4360678;32;34500;-64
2023/03/19 03:55:52;;;;;;;5.57;3.33;;;;;;;22.79;33.91;99976.34;4360641;32;32229;-65
2023/03/19 03:58:20;;;;;;;7.45;3.15;;;;;;;22.81;33.90;99984.31;4360550;32;33494;-63
2023/03/19 04:00:48;;;;;;;5.20;3.17;;;;;;;22.80;33.89;99985.34;4361533;32;32892;-62
2023/03/19 04:03:16;;;;;;;9.32;3.20;;;;;;;22.79;33.85;99978.25;4360965;32;33113;-64
2023/03/19 04:05:44;;;;;;;5.90;2.95;;;;;;;22.79;33.87;99987.22;4348476;32;32306;-64
2023/03/19 04:08:11;;;;;;;5.62;3.12;;;;;;;22.78;33.89;99980.13;4348243;32;32944;-63
2023/03/19 04:10:41;;;;;;;7.70;3.70;;;;;;;22.78;33.90;99979.31;4360679;32;34793;-63
2023/03/19 04:13:09;;;;;;;5.72;2.70;;;;;;;22.77;33.89;99974.91;4336177;32;32807;-63
2023/03/19 04:15:37;;;;;;;5.72;3.40;;;;;;;22.77;33.89;99978.47;4360584;32;33868;-63
2023/03/19 04:18:05;;;;;;;5.93;3.22;;;;;;;22.76;33.89;99968.66;4336180;32;33080;-62
2023/03/19 04:20:32;;;;;;;6.22;3.10;;;;;;;22.77;33.89;99962.16;4373093;32;34446;-63
2023/03/19 04:23:01;;;;;;;5.40;3.40;;;;;;;22.76;33.91;99955.03;4360467;32;33029;-63
2023/03/19 04:25:29;;;;;;;4.95;2.97;;;;;;;22.76;33.91;99954.22;4361881;32;34176;-63
2023/03/19 04:27:57;;;;;;;7.07;2.87;;;;;;;22.75;33.93;99947.09;4360649;32;33925;-62
2023/03/19 04:30:25;;;;;;;5.00;2.80;;;;;;;22.74;33.96;99951.69;4360574;32;33198;-62
2023/03/19 04:32:52;;;;;;;4.87;3.05;;;;;;;22.74;33.99;99948.97;4360459;32;33689;-63
2023/03/19 04:35:21;;;;;;;5.85;3.37;;;;;;;22.73;34.01;99955.47;4360442;32;33454;-63
2023/03/19 04:37:49;;;;;;;9.82;3.45;;;;;;;22.73;34.04;99951.91;4360397;32;33942;-65
2023/03/19 04:40:18;;;;;;;7.43;3.00;;;;;;;22.73;34.10;99958.19;4372741;32;33795;-65
2023/03/19 04:42:45;;;;;;;9.45;3.28;;;;;;;22.72;34.00;99956.53;4360501;32;33853;-65
2023/03/19 04:45:13;;;;;;;5.87;3.37;;;;;;;22.72;33.84;99966.56;4360182;32;33280;-65
2023/03/19 04:47:41;;;;;;;6.43;3.45;;;;;;;22.72;33.70;99974.75;4360412;32;34750;-65
2023/03/19 04:50:09;;;;;;;6.55;3.53;;;;;;;22.71;33.57;99970.31;4360193;32;33706;-62
2023/03/19 04:52:37;;;;;;;8.02;5.82;;;;;;;22.70;33.50;99979.53;4361563;32;33562;-63
2023/03/19 04:55:05;;;;;;;8.23;5.37;;;;;;;22.65;30.57;99972.03;4360029;32;32247;-63
2023/03/19 04:57:34;;;;;;;8.43;5.12;;;;;;;22.58;30.57;99979.41;4360333;32;32744;-62
2023/03/19 05:00:02;;;;;;;9.32;5.18;;;;;;;22.57;30.69;99973.13;4372525;32;33934;-63
2023/03/19 05:02:32;;;;;;;7.05;4.75;;;;;;;22.54;31.23;99968.13;4348061;32;32538;-62
2023/03/19 05:05:00;;;;;;;7.75;4.40;;;;;;;22.53;31.68;99977.34;4359708;32;33407;-63
2023/03/19 05:07:27;;;;;;;7.62;4.72;;;;;;;22.53;31.89;99974.62;4360339;32;33894;-62
2023/03/19 05:09:56;;;;;;;11.68;4.45;;;;;;;22.53;31.99;99988.22;4361269;32;34009;-62
2023/03/19 05:12:24;;;;;;;8.52;4.50;;;;;;;22.52;32.07;99972.97;4359762;32;33107;-62
2023/03/19 05:14:53;;;;;;;9.03;4.17;;;;;;;22.53;32.13;99980.06;4360100;32;33242;-62
2023/03/19 05:17:21;;;;;;;7.15;4.53;;;;;;;22.54;32.22;99984.44;4360154;32;33893;-63
2023/03/19 05:19:49;;;;;;;9.50;4.18;;;;;;;22.54;32.29;99989.03;4347515;32;33919;-62
2023/03/19 05:22:16;;;;;;;9.63;4.60;;;;;;;22.54;32.35;99986.31;4359871;32;33947;-62
2023/03/19 05:24:45;;;;;;;7.65;4.22;;;;;;;22.53;32.42;99981.94;4360073;32;34103;-61
2023/03/19 05:27:12;;;;;;;6.93;3.97;;;;;;;22.52;32.48;99986.56;4359759;32;34289;-66
2023/03/19 05:29:41;;;;;;;6.97;4.05;;;;;;;22.53;32.50;99988.22;4361635;32;33981;-62
2023/03/19 05:32:09;;;;;;;7.57;3.95;;;;;;;22.54;32.53;99991.75;4349770;32;33436;-64
2023/03/19 05:34:38;;;;;;;5.97;3.62;;;;;;;22.54;32.59;99995.31;4361663;32;34155;-63
2023/03/19 05:37:06;;;;;;;7.57;3.78;;;;;;;22.54;32.65;99992.59;4374152;32;33805;-62
2023/03/19 05:39:35;;;;;;;5.50;3.67;;;;;;;22.53;32.70;99996.38;4361843;32;34794;-64
2023/03/19 05:42:04;;;;;;;7.62;3.60;;;;;;;22.54;32.73;99997.22;4362629;32;34077;-64
2023/03/19 05:44:32;;;;;;;7.57;3.78;;;;;;;22.54;32.78;99989.03;4362764;32;33178;-62
2023/03/19 05:47:00;;;;;;;5.47;3.40;;;;;;;22.54;32.82;99987.16;4362858;32;34044;-63
2023/03/19 05:49:28;;;;;;;6.93;3.58;;;;;;;22.56;32.83;99986.94;4362886;32;33793;-62
2023/03/19 05:51:57;;;;;;;6.82;3.45;;;;;;;22.54;32.90;99981.72;4362987;32;34588;-62
2023/03/19 05:54:24;;;;;;;6.68;3.87;;;;;;;22.54;32.94;99989.88;4362435;32;33039;-65
2023/03/19 05:56:53;;;;;;;5.93;3.62;;;;;;;22.54;32.96;99992.59;4362749;32;34743;-63
2023/03/19 05:59:21;;;;;;;7.65;3.95;;;;;;;22.54;33.01;99991.75;4361551;32;34624;-63
2023/03/19 06:01:49;;;;;;;6.85;3.58;;;;;;;22.54;33.02;99991.75;4361447;32;33639;-62
2023/03/19 06:04:17;;;;;;;6.03;3.72;;;;;;;22.54;33.05;99998.03;4349138;32;32250;-63
2023/03/19 06:06:46;;;;;;;5.80;3.70;;;;;;;22.54;33.08;99999.94;4362864;32;34352;-65
2023/03/19 06:09:14;;;;;;;8.80;4.28;;;;;;;22.53;33.14;99993.66;4363959;32;34764;-65
2023/03/19 06:11:42;;;;;;;5.72;3.50;;;;;;;22.55;33.15;100001.59;4374926;32;32734;-64
2023/03/19 06:14:17;;;;;;;7.47;3.40;;;;;;;22.55;33.23;100005.12;4376259;32;36203;-65
2023/03/19 06:16:47;;;;;;;6.12;3.50;;;;;;;22.54;33.25;100002.66;4376361;32;33589;-65
2023/03/19 06:19:15;;;;;;;7.47;3.75;;;;;;;22.53;33.27;100009.97;4373162;32;35233;-64
2023/03/19 06:21:42;;;;;;;6.43;3.83;;;;;;;22.54;33.29;100014.34;4362418;32;34420;-66
2023/03/19 06:24:10;;;;;;;8.00;3.40;;;;;;;22.54;33.33;100021.69;4361106;32;33330;-64
2023/03/19 06:26:38;;;;;;;6.93;3.50;;;;;;;22.54;33.37;100027.13;4361223;32;33517;-64
2023/03/19 06:29:06;;;;;;;5.95;3.25;;;;;;;22.54;33.37;100030.66;4362876;32;34718;-65
2023/03/19 06:31:34;;;;;;;8.10;3.58;;;;;;;22.53;33.39;100022.75;4376013;32;33665;-65
2023/03/19 06:34:02;;;;;;;7.15;3.55;;;;;;;22.55;33.41;100026.06;4377377;32;34091;-64
2023/03/19 06:36:30;;;;;;;7.53;3.20;;;;;;;22.55;33.45;100034.22;4376150;32;34598;-65
2023/03/19 06:38:58;;;;;;;4.87;2.83;;;;;;;22.54;33.47;100038.00;4376796;32;35090;-64
2023/03/19 06:41:26;;;;;;;6.57;3.28;;;;;;;22.54;33.49;100035.28;4360314;32;33678;-64
2023/03/19 06:43:57;;;;;;;5.18;3.40;;;;;;;22.53;33.49;100030.91;4361155;32;31909;-63
2023/03/19 06:46:25;;;;;;;5.55;3.10;;;;;;;22.54;33.51;100032.56;4360992;32;32810;-66
2023/03/19 06:48:53;;;;;;;5.03;3.33;;;;;;;22.53;33.54;100039.06;4362367;32;33681;-63
2023/03/19 06:51:20;;;;;;;5.35;3.42;;;;;;;22.53;33.55;100030.91;4375559;32;33607;-64
2023/03/19 06:53:48;;;;;;;5.35;3.55;;;;;;;22.52;33.58;100032.78;4376064;32;32321;-64
2023/03/19 06:56:15;;;;;;;6.25;3.33;;;;;;;22.53;33.60;100028.19;4375862;32;34046;-64
2023/03/19 06:58:43;;;;;;;6.80;3.28;;;;;;;22.53;33.63;100036.34;4375568;32;34770;-65
2023/03/19 07:01:10;;;;;;;8.95;3.50;;;;;;;22.52;33.66;100034.63;4359182;32;33839;-64
2023/03/19 07:03:38;;;;;;;7.10;3.20;;;;;;;22.53;33.67;100025.44;4347297;33;34251;-65
2023/03/19 07:06:06;;;;;;;5.43;3.30;;;;;;;22.52;33.71;100021.91;4355465;32;33717;-62
2023/03/19 07:08:34;;;;;;;4.80;3.17;;;;;;;22.53;33.75;100025.44;4360795;32;33752;-62
2023/03/19 07:11:05;;;;;;;6.93;2.95;;;;;;;22.52;33.76;100021.03;4360744;32;33263;-61
2023/03/19 07:13:32;;;;;;;6.05;3.12;;;;;;;22.50;33.77;100018.53;4360861;32;32379;-62
2023/03/19 07:16:00;;;;;;;5.47;3.08;;;;;;;22.51;33.77;100022.94;4362059;32;33791;-63
2023/03/19 07:18:28;;;;;;;4.53;3.00;;;;;;;22.51;33.77;100022.09;4360861;32;33136;-61
2023/03/19 07:20:55;;;;;;;5.10;3.00;;;;;;;22.51;33.80;100028.38;4360641;32;33193;-62
2023/03/19 07:23:23;;;;;;;5.50;3.10;;;;;;;22.50;33.83;100018.53;4348677;32;33150;-62
2023/03/19 07:25:50;;;;;;;5.72;3.25;;;;;;;22.52;33.84;100018.31;4362289;32;33971;-61
2023/03/19 07:28:18;;;;;;;7.28;3.40;;;;;;;22.51;33.85;100022.94;4361944;32;33883;-62
2023/03/19 07:30:45;;;;;;;4.62;2.80;;;;;;;22.52;33.87;100027.34;4360750;32;33906;-63
2023/03/19 07:33:13;;;;;;;6.10;3.30;;;;;;;22.51;33.88;100031.09;4360626;32;32968;-63
2023/03/19 07:35:40;;;;;;;5.57;2.78;;;;;;;22.51;33.93;100028.38;4360869;32;33727;-63
2023/03/19 07:38:08;;;;;;;8.07;2.80;;;;;;;22.52;33.94;100030.06;4361931;32;34079;-62
2023/03/19 07:40:36;;;;;;;5.07;2.90;;;;;;;22.51;33.96;100036.53;4360720;32;33589;-63
2023/03/19 07:43:06;;;;;;;;;;;;;;;22.51;33.97;100031.09;4360962;32;33394;-63
2023/03/19 07:45:33;;;;;;;5.12;2.85;;;;;;;22.59;33.82;100028.13;4361991;32;34107;-62
2023/03/19 07:48:05;;;;;;;4.60;2.58;;;;;;;22.54;33.95;100029.84;4348449;32;32950;-63
2023/03/19 07:50:33;;;;;;;6.45;3.17;;;;;;;22.51;34.00;100022.94;4361869;32;33542;-62
2023/03/19 07:53:02;;;;;;;4.78;2.95;;;;;;;22.49;34.03;100022.31;4361530;32;33463;-65
2023/03/19 07:55:29;;;;;;;5.80;2.95;;;;;;;22.52;34.04;100023.75;4361671;32;34670;-62
2023/03/19 07:57:57;;;;;;;5.57;3.00;;;;;;;22.50;34.06;100021.25;4361652;32;33716;-64
2023/03/19 08:00:25;;;;;;;4.95;3.15;;;;;;;22.50;34.07;100023.16;4345736;32;33862;-64
2023/03/19 08:02:52;;;;;;;4.93;3.17;;;;;;;22.48;34.08;100020.66;4357850;32;33663;-62
2023/03/19 08:05:20;;;;;;;8.90;2.87;;;;;;;22.49;34.08;100011.44;4357999;32;33960;-63
2023/03/19 08:07:49;;;;;;;4.75;2.75;;;;;;;22.50;34.11;100020.44;4345703;33;33818;-62
2023/03/19 08:10:17;;;;;;;5.27;3.13;;;;;;;22.48;34.11;100009.78;4346743;33;34372;-63
2023/03/19 08:12:44;;;;;;;4.75;2.90;;;;;;;22.51;34.13;100011.22;4347034;33;34115;-63
2023/03/19 08:15:12;;;;;;;5.70;3.03;;;;;;;22.50;34.15;100017.72;4345535;33;32815;-62
2023/03/19 08:17:40;;;;;;;4.87;2.67;;;;;;;22.49;34.15;100019.59;4357769;32;33907;-63
2023/03/19 08:20:09;;;;;;;7.95;3.40;;;;;;;22.49;34.19;100011.44;4346818;33;33955;-62
2023/03/19 08:22:37;;;;;;;6.50;3.17;;;;;;;22.48;34.20;100012.50;4359897;32;32933;-63
2023/03/19 08:25:05;;;;;;;7.22;3.03;;;;;;;22.49;34.23;100002.47;4347954;32;33050;-64
2023/03/19 08:27:34;;;;;;;5.10;2.80;;;;;;;22.49;34.24;100013.34;4360385;32;34688;-63
2023/03/19 08:30:03;;;;;;;8.70;3.12;;;;;;;22.50;34.31;100015.00;4360403;32;34564;-66
2023/03/19 08:32:30;;;;;;;8.02;2.90;;;;;;;22.49;34.33;100013.34;4360254;32;33321;-63
2023/03/19 08:34:59;;;;;;;6.05;2.92;;;;;;;22.50;34.35;100017.72;4360525;32;33975;-62
2023/03/19 08:37:26;;;;;;;4.85;2.90;;;;;;;22.49;34.36;100014.16;4360256;32;34475;-63
2023/03/19 08:39:54;;;;;;;5.78;3.17;;;;;;;22.49;34.40;100021.50;4360055;32;34273;-63
2023/03/19 08:42:22;;;;;;;5.00;2.80;;;;;;;22.48;34.38;100017.94;4360135;32;33826;-61
2023/03/19 08:44:49;;;;;;;4.55;2.85;;;;;;;22.48;34.40;100012.50;4361326;32;34710;-63
2023/03/19 08:47:17;;;;;;;7.80;3.10;;;;;;;22.50;34.35;100017.72;4359994;32;34023;-64
2023/03/19 08:49:45;;;;;;;6.75;2.70;;;;;;;22.50;34.27;100015.81;4360085;32;34473;-67
2023/03/19 08:52:12;;;;;;;5.68;2.60;;;;;;;22.49;33.88;100014.16;4360034;32;33683;-67
2023/03/19 08:54:40;;;;;;;4.53;2.47;;;;;;;22.50;34.23;100015.00;4361414;32;33871;-67
2023/03/19 08:57:08;;;;;;;4.65;2.85;;;;;;;22.52;34.39;100002.00;4360968;32;34111;-66
2023/03/19 08:59:36;;;;;;;4.95;2.75;;;;;;;22.53;34.44;100007.25;4347821;32;33509;-66
2023/03/19 09:02:04;;;;;;;6.25;2.80;;;;;;;22.56;34.46;100004.06;4359890;32;33143;-71
2023/03/19 09:04:36;;;;;;;5.95;2.80;;;;;;;22.58;34.43;100004.72;4360055;32;33671;-65
2023/03/19 09:07:04;;;;;;;6.72;2.60;;;;;;;22.61;34.42;100004.25;4359879;32;33920;-66
2023/03/19 09:09:31;;;;;;;7.43;2.90;;;;;;;22.62;34.34;100003.25;4361015;32;33928;-66
2023/03/19 09:11:59;;;;;;;5.80;2.75;;;;;;;22.64;34.32;100006.56;4347621;32;34100;-66
2023/03/19 09:14:27;;;;;;;5.25;2.62;;;;;;;22.67;34.28;99997.16;4359776;32;34745;-66
2023/03/19 09:16:54;;;;;;;6.62;3.22;;;;;;;22.69;34.23;99999.66;4375805;32;34028;-66
2023/03/19 09:19:22;;;;;;;9.45;2.90;;;;;;;22.71;34.21;100000.25;4376088;32;33810;-65
2023/03/19 09:21:50;;;;;;;7.20;2.65;;;;;;;22.71;34.19;99992.94;4354804;32;32354;-66
2023/03/19 09:24:17;;;;;;;5.20;2.62;;;;;;;22.74;34.17;99991.66;4359654;32;32764;-65
2023/03/19 09:26:45;;;;;;;5.50;2.40;;;;;;;22.74;34.18;99988.94;4347480;32;32863;-66
2023/03/19 09:29:13;;;;;;;4.65;2.75;;;;;;;22.76;34.22;99987.69;4359654;32;34641;-66
2023/03/19 09:31:40;;;;;;;7.60;3.08;;;;;;;22.78;34.23;99985.56;4360535;32;33094;-65
2023/03/19 09:34:08;;;;;;;5.82;2.55;;;;;;;22.80;34.25;99986.22;4359381;32;33406;-65
2023/03/19 09:36:36;;;;;;;7.47;3.42;;;;;;;22.82;34.22;99978.66;4359402;32;33516;-65
2023/03/19 09:39:04;;;;;;;4.90;2.60;;;;;;;22.83;34.18;99985.75;4359670;32;32891;-66
2023/03/19 09:42:09;;;;;;;6.32;3.10;;;;;;;22.85;34.16;99991.00;4347334;32;33135;-65
2023/03/19 09:44:38;;;;;;;5.35;2.53;;;;;;;22.88;34.11;99963.31;4359032;32;33468;-62
2023/03/19 09:47:25;;;;;;;7.28;2.65;;;;;;;22.87;34.15;99972.56;4345601;32;34014;-62
2023/03/19 09:49:58;;;;;;;10.18;2.92;;;;;;;22.89;34.13;99975.91;4350755;32;32554;-62
2023/03/19 09:52:48;;;;;;;7.62;2.70;;;;;;;22.88;34.03;99975.03;4344720;32;32638;-62
2023/03/19 09:55:35;;;;;;;;;;;;;;;22.89;34.01;99967.75;4352288;32;33862;-61
2023/03/19 09:58:10;;;;;;;10.15;3.00;;;;;;;22.94;33.94;99975.25;4357218;32;34161;-63
2023/03/19 10:00:37;;;;;;;9.20;2.87;;;;;;;22.85;34.03;99977.38;4359499;32;32905;-62
2023/03/19 10:03:14;;;;;;;5.10;2.72;;;;;;;22.83;34.06;99979.47;4356028;32;33170;-63
2023/03/19 10:06:09;;;;;;;7.12;2.35;;;;;;;22.80;34.07;99971.75;4344015;33;33224;-62
2023/03/19 10:09:15;;;;;;;8.40;2.58;;;;;;;22.79;34.06;99967.34;4349894;32;33751;-62
2023/03/19 10:11:58;;;;;;;5.12;2.50;;;;;;;22.77;34.07;99967.59;4358473;32;34348;-62
2023/03/19 10:14:44;;;;;;;6.40;2.62;;;;;;;22.74;34.11;99972.63;4357724;32;34214;-66
2023/03/19 10:17:19;;;;;;;4.47;2.60;;;;;;;22.72;34.12;99972.84;4361731;32;34637;-62
2023/03/19 10:19:54;;;;;;;6.37;2.83;;;;;;;22.71;34.12;99964.88;4346817;32;34843;-63
2023/03/19 10:22:25;;;;;;;3.92;2.22;;;;;;;22.70;34.11;99976.81;4332555;33;34614;-64
2023/03/19 10:24:52;;;;;;;5.40;3.12;;;;;;;22.67;34.11;99967.22;4341944;32;33163;-64
2023/03/19 10:27:21;;;;;;;4.55;2.55;;;;;;;22.67;34.10;99968.06;4360400;32;33965;-64
2023/03/19 10:29:48;;;;;;;5.28;2.50;;;;;;;22.65;34.09;99956.53;4359765;32;34535;-64
2023/03/19 10:32:20;;;;;;;4.95;2.72;;;;;;;22.65;34.10;99951.09;4359545;32;34556;-64
2023/03/19 10:34:49;;;;;;;5.00;2.78;;;;;;;22.64;34.11;99959.50;4348202;32;34175;-64
2023/03/19 10:37:21;;;;;;;5.90;2.45;;;;;;;22.61;34.13;99952.59;4360650;32;32539;-64
2023/03/19 10:39:50;;;;;;;4.68;2.45;;;;;;;22.62;34.11;99942.56;4361618;32;33975;-66
2023/03/19 10:42:46;;;;;;;10.07;2.75;;;;;;;22.59;34.13;99941.09;4356926;32;33377;-64
2023/03/19 10:45:26;;;;;;;6.20;2.60;;;;;;;22.61;34.10;99939.00;4345227;32;32134;-63
2023/03/19 10:47:58;;;;;;;11.38;3.05;;;;;;;22.58;34.12;99936.72;4348849;32;34052;-63
2023/03/19 10:50:49;;;;;;;4.20;2.28;;;;;;;22.57;34.12;99931.50;4346724;32;34914;-63
2023/03/19 10:53:17;;;;;;;5.15;2.95;;;;;;;22.58;34.10;99928.56;4345450;32;34422;-63
2023/03/19 10:56:02;;;;;;;5.15;2.72;;;;;;;22.56;34.10;99929.81;4356747;32;33055;-65
2023/03/19 10:58:31;;;;;;;4.10;2.53;;;;;;;22.56;34.09;99917.06;4359331;32;33633;-63
2023/03/19 11:01:02;;;;;;;6.20;2.70;;;;;;;22.55;34.08;99929.00;4347140;32;34828;-63
2023/03/19 11:03:35;;;;;;;4.57;2.42;;;;;;;22.54;34.10;99918.34;4361055;32;33529;-63
2023/03/19 11:06:04;;;;;;;5.65;2.70;;;;;;;22.55;34.09;99914.56;4361816;32;33154;-63
2023/03/19 11:08:34;;;;;;;6.97;2.67;;;;;;;22.55;34.07;99903.69;4360941;32;33903;-62
2023/03/19 11:11:02;;;;;;;4.95;2.75;;;;;;;22.52;34.08;99899.53;4360393;32;33992;-63
2023/03/19 11:13:33;;;;;;;5.15;2.37;;;;;;;22.53;34.05;99901.19;4360254;32;33842;-61
2023/03/19 11:16:01;;;;;;;7.20;2.83;;;;;;;22.53;34.06;99889.50;4355947;32;33317;-63
2023/03/19 11:18:30;;;;;;;4.65;2.30;;;;;;;22.52;34.05;99894.09;4359987;32;34193;-64
2023/03/19 11:21:05;;;;;;;5.07;2.58;;;;;;;22.50;34.07;99896.19;4361832;32;33897;-64
2023/03/19 11:23:38;;;;;;;6.07;2.97;;;;;;;22.52;34.05;99887.81;4369376;32;33847;-66
2023/03/19 11:26:06;;;;;;;6.68;2.70;;;;;;;22.50;34.07;99881.75;4357139;32;33886;-65
2023/03/19 11:28:35;;;;;;;5.28;2.75;;;;;;;22.49;34.04;99872.78;4345306;33;34581;-66
2023/03/19 11:31:23;;;;;;;6.25;2.70;;;;;;;22.49;34.04;99883.66;4354624;32;34284;-62
2023/03/19 11:33:59;;;;;;;3.78;2.40;;;;;;;22.51;34.01;99867.94;4352932;32;33973;-67
2023/03/19 11:36:32;;;;;;;4.93;2.60;;;;;;;22.48;34.05;99873.00;4358675;32;33343;-63
2023/03/19 11:39:40;;;;;;;4.68;2.60;;;;;;;22.47;34.06;99871.31;4360832;32;33963;-62
2023/03/19 11:42:10;;;;;;;5.68;2.60;;;;;;;22.47;34.05;99866.69;4348897;32;34216;-65